Time;durP1;ratioP1;P1;durP2;ratioP2;P2;SDS_P1;SDS_P2;PMS_P1;PMS_P2;Temp;Humidity;BMP_temperature;BMP_pressure;BME280_temperature;BME280_humidity;BME280_pressure;Samples;Min_cycle;Max_cycle;Signal;HPM_P1;HPM_P2
2023/03/03 00:01:07;;;;;;;38.65;21.25;;;4.80;99.90;;;;;;6243389;23;20050;-90
2023/03/03 00:03:33;;;;;;;40.55;22.27;;;3.90;99.90;;;;;;6243522;23;20008;-92
2023/03/03 00:05:59;;;;;;;46.65;23.05;;;5.90;99.90;;;;;;6243796;23;20000;-92
2023/03/03 00:08:25;;;;;;;46.97;21.77;;;3.80;99.90;;;;;;6243325;23;20001;-91
2023/03/03 00:10:51;;;;;;;45.22;21.52;;;5.40;99.90;;;;;;6216671;23;20434;-92
2023/03/03 00:13:25;;;;;;;34.25;21.00;;;5.40;99.90;;;;;;6244643;23;20000;-92
2023/03/03 00:15:52;;;;;;;41.00;22.05;;;3.80;99.90;;;;;;6243297;23;20004;-92
2023/03/03 00:18:25;;;;;;;47.22;22.10;;;3.70;99.90;;;;;;6244363;23;20012;-92
2023/03/03 00:20:56;;;;;;;40.05;22.05;;;5.60;99.90;;;;;;6216565;23;20010;-90
2023/03/03 00:23:36;;;;;;;47.13;21.38;;;4.50;99.90;;;;;;6243188;23;20456;-91
2023/03/03 00:26:07;;;;;;;40.58;21.27;;;3.80;99.90;;;;;;6243330;23;20023;-91
2023/03/03 00:28:48;;;;;;;41.70;21.88;;;3.70;99.90;;;;;;6243492;23;20000;-92
2023/03/03 00:31:31;;;;;;;40.90;20.70;;;4.30;99.90;;;;;;6243482;23;20004;-92
2023/03/03 00:34:00;;;;;;;41.17;20.70;;;3.70;99.90;;;;;;6216305;23;20004;-92
2023/03/03 00:36:39;;;;;;;39.08;20.70;;;3.70;99.90;;;;;;6216392;23;20014;-92
2023/03/03 00:39:29;;;;;;;39.00;21.55;;;3.90;99.90;;;;;;6216455;23;20032;-91
2023/03/03 00:41:56;;;;;;;36.45;21.02;;;3.70;99.90;;;;;;6242776;23;20456;-92
2023/03/03 00:44:44;;;;;;;40.72;21.55;;;3.70;99.90;;;;;;6244186;23;20455;-90
2023/03/03 00:47:23;;;;;;;42.70;22.63;;;3.70;99.90;;;;;;6242717;23;20503;-92
2023/03/03 00:49:49;;;;;;;39.63;21.35;;;4.40;99.90;;;;;;6244513;23;20079;-91
2023/03/03 00:52:19;;;;;;;40.55;21.27;;;3.70;99.90;;;;;;6243922;23;20077;-91
2023/03/03 00:54:45;;;;;;;40.22;22.08;;;3.70;99.90;;;;;;6255298;23;20049;-92
2023/03/03 00:57:13;;;;;;;43.42;21.25;;;3.90;99.90;;;;;;6250700;23;20008;-90
2023/03/03 00:59:39;;;;;;;37.22;19.33;;;5.60;99.90;;;;;;6243073;23;20082;-88
2023/03/03 01:02:05;;;;;;;39.45;21.55;;;5.00;99.90;;;;;;6243017;23;20000;-91
2023/03/03 01:04:31;;;;;;;38.22;21.05;;;5.30;99.90;;;;;;6242328;23;20448;-91
2023/03/03 01:06:57;;;;;;;41.67;20.83;;;4.40;99.90;;;;;;6215808;23;20027;-92
2023/03/03 01:09:23;;;;;;;38.03;21.48;;;3.60;99.90;;;;;;6242876;23;20502;-87
2023/03/03 01:11:50;;;;;;;41.20;21.15;;;3.50;99.90;;;;;;6243259;23;20332;-92
2023/03/03 01:14:15;;;;;;;42.55;19.92;;;5.80;99.90;;;;;;6242559;23;20004;-92
2023/03/03 01:16:41;;;;;;;39.38;20.42;;;3.40;99.90;;;;;;6242653;23;20340;-90
2023/03/03 01:19:07;;;;;;;42.90;20.83;;;3.60;99.90;;;;;;6242514;23;20034;-91
2023/03/03 01:21:33;;;;;;;35.42;20.33;;;3.60;99.90;;;;;;6242600;23;20004;-92
2023/03/03 01:23:58;;;;;;;42.80;20.20;;;3.60;99.90;;;;;;6241961;23;20083;-90
2023/03/03 01:26:24;;;;;;;40.25;20.90;;;5.30;99.90;;;;;;6242228;23;20002;-88
2023/03/03 01:28:50;;;;;;;34.35;19.52;;;3.70;99.90;;;;;;6242584;23;20054;-89
2023/03/03 01:31:16;;;;;;;40.30;20.83;;;3.90;99.90;;;;;;6215381;23;20051;-89
2023/03/03 01:33:41;;;;;;;41.95;20.05;;;4.30;99.90;;;;;;6241837;23;20036;-90
2023/03/03 01:36:08;;;;;;;35.13;19.52;;;;;;;;;;6242129;23;20000;-89
2023/03/03 01:38:37;;;;;;;38.05;19.75;;;3.60;99.90;;;;;;6242161;23;20098;-89
2023/03/03 01:41:03;;;;;;;40.92;20.45;;;5.10;99.90;;;;;;6241997;23;20393;-90
2023/03/03 01:43:31;;;;;;;41.67;20.65;;;3.60;99.90;;;;;;6242404;23;20000;-92
2023/03/03 01:45:56;;;;;;;42.05;20.45;;;5.30;99.90;;;;;;6242368;23;20004;-92
2023/03/03 01:48:39;;;;;;;41.60;19.88;;;5.60;99.90;;;;;;6242888;23;20333;-91
2023/03/03 01:51:19;;;;;;;35.17;20.05;;;3.40;99.90;;;;;;6242040;23;20010;-88
2023/03/03 01:53:49;;;;;;;37.13;19.70;;;3.40;99.90;;;;;;6242186;23;20004;-89
2023/03/03 01:56:15;;;;;;;33.90;19.05;;;;;;;;;;6242330;23;20544;-89
2023/03/03 01:58:47;;;;;;;38.63;19.30;;;3.40;99.90;;;;;;6215177;23;20004;-88
2023/03/03 02:01:17;;;;;;;37.85;19.27;;;3.40;99.90;;;;;;6215053;23;20055;-90
2023/03/03 02:03:43;;;;;;;35.72;19.42;;;4.70;99.90;;;;;;6215078;23;20098;-92
2023/03/03 02:06:13;;;;;;;41.25;19.80;;;3.40;99.90;;;;;;6215003;23;20027;-90
2023/03/03 02:08:50;;;;;;;43.25;19.17;;;4.70;99.90;;;;;;6242143;23;20000;-90
2023/03/03 02:11:16;;;;;;;42.53;20.00;;;3.30;99.90;;;;;;6242132;23;20696;-90
2023/03/03 02:13:42;;;;;;;41.30;19.17;;;3.30;99.90;;;;;;6215258;23;20468;-88
2023/03/03 02:16:07;;;;;;;38.97;19.85;;;4.00;99.90;;;;;;6215002;23;20022;-90
2023/03/03 02:18:33;;;;;;;36.75;19.27;;;4.70;99.90;;;;;;6214753;23;20073;-92
2023/03/03 02:21:05;;;;;;;35.20;18.55;;;3.30;99.90;;;;;;6242286;23;20377;-89
2023/03/03 02:23:38;;;;;;;37.78;20.10;;;3.20;99.90;;;;;;6241320;23;20460;-87
2023/03/03 02:26:24;;;;;;;33.22;18.13;;;3.30;99.90;;;;;;6241569;23;20004;-89
2023/03/03 02:28:51;;;;;;;35.63;19.23;;;3.20;99.90;;;;;;6214537;23;20113;-92
2023/03/03 02:31:20;;;;;;;41.65;20.02;;;3.30;99.90;;;;;;6214590;23;20265;-90
2023/03/03 02:33:48;;;;;;;36.97;19.02;;;3.40;99.90;;;;;;6214784;23;20000;-91
2023/03/03 02:36:23;;;;;;;39.95;19.40;;;3.80;99.90;;;;;;6214503;23;20004;-89
2023/03/03 02:39:09;;;;;;;39.80;18.98;;;3.30;99.90;;;;;;6214726;23;20014;-89
2023/03/03 02:41:54;;;;;;;41.00;19.10;;;3.40;99.90;;;;;;6214466;23;20008;-91
2023/03/03 02:44:22;;;;;;;37.97;19.88;;;3.40;99.90;;;;;;6214456;22;20098;-90
2023/03/03 02:46:49;;;;;;;38.28;18.75;;;3.40;99.90;;;;;;6214617;23;20345;-91
2023/03/03 02:49:20;;;;;;;37.60;19.70;;;4.10;99.90;;;;;;6241293;23;20004;-91
2023/03/03 02:51:46;;;;;;;36.88;19.33;;;3.70;99.90;;;;;;6241338;23;20003;-90
2023/03/03 02:54:14;;;;;;;40.42;19.48;;;5.40;99.90;;;;;;6241229;23;19996;-91
2023/03/03 02:56:39;;;;;;;46.83;20.43;;;4.90;99.90;;;;;;6215263;23;20004;-90
2023/03/03 02:59:06;;;;;;;42.78;20.85;;;3.10;99.90;;;;;;6241442;23;20241;-89
2023/03/03 03:01:35;;;;;;;39.65;19.92;;;3.60;99.90;;;;;;6241433;23;20027;-90
2023/03/03 03:04:05;;;;;;;42.33;21.02;;;3.40;99.90;;;;;;6241250;23;20387;-91
2023/03/03 03:06:31;;;;;;;48.50;20.80;;;4.00;99.90;;;;;;6241294;23;20007;-90
2023/03/03 03:08:56;;;;;;;37.33;21.58;;;3.30;99.90;;;;;;6242856;23;20004;-91
2023/03/03 03:11:22;;;;;;;43.72;21.30;;;3.30;99.90;;;;;;6241773;23;20001;-91
2023/03/03 03:13:48;;;;;;;45.20;20.90;;;;;;;;;;6214871;23;20602;-90
2023/03/03 03:16:14;;;;;;;38.95;20.73;;;;;;;;;;6241316;23;20492;-91
2023/03/03 03:18:40;;;;;;;44.20;21.80;;;;;;;;;;6214719;23;20012;-91
2023/03/03 03:21:08;;;;;;;43.35;21.20;;;3.40;99.90;;;;;;6214899;23;20432;-91
2023/03/03 03:23:35;;;;;;;45.45;23.02;;;3.30;99.90;;;;;;6214616;23;20008;-92
2023/03/03 03:26:00;;;;;;;44.72;21.48;;;3.90;99.90;;;;;;6241422;23;20101;-87
2023/03/03 03:28:26;;;;;;;37.60;22.20;;;3.30;99.90;;;;;;6242378;23;20368;-89
2023/03/03 03:30:51;;;;;;;42.50;22.13;;;3.30;99.90;;;;;;6241526;23;20027;-91
2023/03/03 03:33:18;;;;;;;50.55;22.83;;;;;;;;;;6214800;23;20027;-90
2023/03/03 03:35:45;;;;;;;47.40;22.55;;;3.10;99.90;;;;;;6214569;23;20062;-90
2023/03/03 03:38:12;;;;;;;40.33;20.50;;;;;;;;;;6214681;23;20012;-91
2023/03/03 03:40:37;;;;;;;39.80;20.48;;;3.10;99.90;;;;;;6241421;23;20219;-92
2023/03/03 03:43:03;;;;;;;39.60;21.67;;;3.90;99.90;;;;;;6241353;23;20356;-92
2023/03/03 03:45:28;;;;;;;41.65;22.73;;;3.30;99.90;;;;;;6242196;23;19996;-90
2023/03/03 03:47:54;;;;;;;52.25;24.02;;;4.90;99.90;;;;;;6241288;23;20000;-91
2023/03/03 03:50:22;;;;;;;42.80;22.52;;;5.30;99.90;;;;;;6245377;23;19996;-91
2023/03/03 03:52:48;;;;;;;49.42;23.05;;;5.00;99.90;;;;;;6216891;23;20026;-93
2023/03/03 03:55:14;;;;;;;42.10;22.67;;;3.90;99.90;;;;;;6216733;23;20094;-93
2023/03/03 03:57:41;;;;;;;47.10;24.00;;;4.60;99.90;;;;;;6218168;23;19996;-92
2023/03/03 04:00:08;;;;;;;48.63;23.50;;;3.80;99.90;;;;;;6218692;23;20008;-93
2023/03/03 04:02:37;;;;;;;47.60;23.65;;;2.20;99.90;;;;;;6218835;23;20078;-93
2023/03/03 04:05:03;;;;;;;46.05;23.23;;;;;;;;;;6218998;23;20008;-92
2023/03/03 04:07:32;;;;;;;47.80;24.13;;;;;;;;;;6220592;23;20031;-93
2023/03/03 04:09:58;;;;;;;41.22;23.52;;;3.00;99.90;;;;;;6230903;23;20011;-90
2023/03/03 04:12:24;;;;;;;48.70;23.85;;;;;;;;;;6240224;23;20001;-91
2023/03/03 04:14:50;;;;;;;52.97;24.10;;;2.90;99.90;;;;;;6236115;23;19997;-93
2023/03/03 04:17:19;;;;;;;46.90;23.52;;;5.10;99.90;;;;;;6250265;23;20007;-94
2023/03/03 04:19:45;;;;;;;45.85;22.88;;;2.90;99.90;;;;;;6221549;23;20015;-93
2023/03/03 04:22:12;;;;;;;46.20;22.95;;;2.90;99.90;;;;;;6223286;23;20004;-94
2023/03/03 04:24:39;;;;;;;44.30;23.05;;;4.10;99.90;;;;;;6219964;23;20013;-94
2023/03/03 04:27:05;;;;;;;45.35;23.65;;;2.80;99.90;;;;;;6219607;23;20008;-93
2023/03/03 04:29:31;;;;;;;55.03;24.98;;;3.40;99.90;;;;;;6220293;23;20004;-93
2023/03/03 04:31:57;;;;;;;46.42;23.60;;;;;;;;;;6219806;23;20012;-94
2023/03/03 04:34:23;;;;;;;47.78;25.05;;;2.80;99.90;;;;;;6220135;23;20000;-92
2023/03/03 04:36:49;;;;;;;50.78;24.38;;;;;;;;;;6248935;23;20390;-92
2023/03/03 04:39:16;;;;;;;48.88;23.40;;;2.80;99.90;;;;;;6223637;23;20004;-93
2023/03/03 04:41:42;;;;;;;43.08;23.60;;;;;;;;;;6223785;23;20444;-92
2023/03/03 04:44:08;;;;;;;49.85;24.85;;;2.80;99.90;;;;;;6219860;23;20042;-94
2023/03/03 04:46:36;;;;;;;53.38;25.38;;;4.10;99.90;;;;;;6245645;23;19996;-92
2023/03/03 04:49:03;;;;;;;52.40;23.83;;;;;;;;;;6219318;23;20392;-93
2023/03/03 04:51:29;;;;;;;53.55;25.23;;;;;;;;;;6218272;23;20028;-94
2023/03/03 04:53:55;;;;;;;52.65;24.48;;;;;;;;;;6218470;23;20583;-94
2023/03/03 04:56:21;;;;;;;56.30;25.25;;;2.60;99.90;;;;;;6218355;23;20004;-92
2023/03/03 04:58:47;;;;;;;46.08;25.20;;;3.80;99.90;;;;;;6218112;23;20004;-92
2023/03/03 05:01:13;;;;;;;54.58;27.35;;;;;;;;;;6218417;23;20070;-93
2023/03/03 05:03:40;;;;;;;59.35;26.55;;;;;;;;;;6218503;23;20004;-92
2023/03/03 05:06:06;;;;;;;57.53;26.08;;;2.70;99.90;;;;;;6219481;23;20326;-91
2023/03/03 05:08:32;;;;;;;56.47;26.65;;;2.60;99.90;;;;;;6219844;23;20000;-93
2023/03/03 05:10:58;;;;;;;52.45;26.15;;;3.70;99.90;;;;;;6218577;23;20011;-93
2023/03/03 05:13:27;;;;;;;50.88;25.35;;;3.90;99.90;;;;;;6219385;23;20068;-93
2023/03/03 05:15:56;;;;;;;54.95;27.50;;;2.90;99.90;;;;;;6219703;23;20091;-94
2023/03/03 05:18:23;;;;;;;53.33;26.17;;;2.60;99.90;;;;;;6221160;23;20022;-94
2023/03/03 05:20:50;;;;;;;56.10;26.73;;;2.50;99.90;;;;;;6246268;23;20427;-94
2023/03/03 05:23:17;;;;;;;58.40;27.83;;;2.50;99.90;;;;;;6219101;23;20023;-93
2023/03/03 05:25:43;;;;;;;63.22;30.10;;;;;;;;;;6218365;23;20493;-94
2023/03/03 05:28:09;;;;;;;61.15;28.92;;;2.50;99.90;;;;;;6219737;23;20004;-93
2023/03/03 05:30:35;;;;;;;57.72;28.35;;;3.90;99.90;;;;;;6220287;23;20000;-93
2023/03/03 05:33:02;;;;;;;62.25;28.13;;;;;;;;;;6218805;23;20095;-93
2023/03/03 05:35:30;;;;;;;60.20;30.00;;;2.30;99.90;;;;;;6218484;23;20289;-93
2023/03/03 05:37:59;;;;;;;64.45;29.55;;;3.80;99.90;;;;;;6219319;23;20077;-92
2023/03/03 05:40:25;;;;;;;;;;;2.90;99.90;;;;;;6220007;23;20036;-94
2023/03/03 05:42:57;;;;;;;;;;;4.70;99.90;;;;;;6220097;23;19907;-92
2023/03/03 05:45:23;;;;;;;;;;;4.30;99.90;;;;;;6190493;23;20339;-86
2023/03/03 05:47:49;;;;;;;;;;;5.40;99.90;;;;;;6241722;23;19900;-87
2023/03/03 05:50:14;;;;;;;;;;;2.00;99.90;;;;;;6245739;23;19946;-86
2023/03/03 05:52:40;;;;;;;;;;;2.20;99.90;;;;;;6242114;23;19986;-86
2023/03/03 05:55:05;;;;;;;;;;;2.00;99.90;;;;;;6242288;23;19900;-86
2023/03/03 05:57:31;;;;;;;;;;;2.10;99.90;;;;;;6241584;23;19903;-86
2023/03/03 05:59:56;;;;;;;;;;;2.10;99.90;;;;;;6214999;23;19900;-85
2023/03/03 06:02:22;;;;;;;;;;;2.00;99.90;;;;;;6241524;23;20382;-87
2023/03/03 06:04:47;;;;;;;;;;;2.10;99.90;;;;;;6214674;23;20256;-87
2023/03/03 06:07:13;;;;;;;;;;;2.10;99.90;;;;;;6214907;23;20320;-86
2023/03/03 06:09:39;;;;;;;;;;;2.10;99.90;;;;;;6242097;23;19946;-86
2023/03/03 06:12:04;;;;;;;;;;;2.10;99.90;;;;;;6242139;23;19953;-87
2023/03/03 06:14:30;;;;;;;;;;;2.20;99.90;;;;;;6241552;23;19906;-85
2023/03/03 06:16:56;;;;;;;;;;;2.20;99.90;;;;;;6232910;23;20017;-86
2023/03/03 06:19:22;;;;;;;;;;;2.20;99.90;;;;;;6239294;23;19911;-86
2023/03/03 06:21:48;;;;;;;;;;;2.20;99.90;;;;;;6212889;23;19900;-86
2023/03/03 06:24:14;;;;;;;;;;;2.30;99.90;;;;;;6240377;23;19919;-87
2023/03/03 06:26:40;;;;;;;;;;;4.40;99.90;;;;;;6240336;23;20317;-87
2023/03/03 06:29:06;;;;;;;;;;;4.50;99.90;;;;;;6242083;23;20325;-87
2023/03/03 06:31:31;;;;;;;;;;;2.10;99.90;;;;;;6241235;23;19990;-87
2023/03/03 06:33:56;;;;;;;;;;;3.30;99.90;;;;;;6241368;23;19906;-87
2023/03/03 06:36:22;;;;;;;;;;;2.10;99.90;;;;;;6241291;23;19906;-88
2023/03/03 06:38:48;;;;;;;;;;;2.10;99.90;;;;;;6241258;23;19899;-88
2023/03/03 06:41:13;;;;;;;;;;;2.20;99.90;;;;;;6241112;23;19899;-88
2023/03/03 06:43:39;;;;;;;;;;;2.50;99.90;;;;;;6242402;23;19914;-88
2023/03/03 06:46:04;;;;;;;;;;;2.20;99.90;;;;;;6214288;23;19899;-87
2023/03/03 06:48:30;;;;;;;;;;;2.10;99.90;;;;;;6241456;23;20320;-87
2023/03/03 06:50:56;;;;;;;;;;;2.20;99.90;;;;;;6240665;23;20209;-87
2023/03/03 06:53:22;;;;;;;;;;;2.30;99.90;;;;;;6241105;23;19985;-89
2023/03/03 06:55:47;;;;;;;;;;;3.60;99.90;;;;;;6241029;23;19982;-87
2023/03/03 06:58:13;;;;;;;;;;;2.20;99.90;;;;;;6241370;23;19987;-87
2023/03/03 07:00:42;;;;;;;;;;;2.10;99.90;;;;;;6242217;23;20239;-87
2023/03/03 07:03:13;;;;;;;;;;;2.50;99.90;;;;;;6242433;23;19907;-87
2023/03/03 07:05:39;;;;;;;;;;;2.10;99.90;;;;;;6215381;23;20316;-87
2023/03/03 07:08:25;;;;;;;;;;;2.10;99.90;;;;;;6241127;23;19906;-87
2023/03/03 07:10:51;;;;;;;;;;;2.10;99.90;;;;;;6213531;23;20236;-87
2023/03/03 07:13:22;;;;;;;;;;;2.90;99.90;;;;;;6241539;23;19899;-87
2023/03/03 07:15:48;;;;;;;;;;;2.10;99.90;;;;;;6240501;23;19904;-86
2023/03/03 07:18:20;;;;;;;;;;;2.10;99.90;;;;;;6238433;23;19914;-85
2023/03/03 07:20:45;;;;;;;;;;;2.20;99.90;;;;;;6240073;23;19899;-86
2023/03/03 07:23:19;;;;;;;;;;;2.20;99.90;;;;;;6240794;23;19965;-86
2023/03/03 07:25:45;;;;;;;;;;;2.30;99.90;;;;;;6240606;23;19899;-85
2023/03/03 07:28:19;;;;;;;;;;;2.30;99.90;;;;;;6241288;23;19907;-85
2023/03/03 07:30:44;;;;;;;;;;;2.40;99.90;;;;;;6240394;23;20439;-87
2023/03/03 07:33:33;;;;;;;;;;;2.40;99.90;;;;;;6243048;23;19923;-87
2023/03/03 07:35:59;;;;;;;;;;;2.50;99.90;;;;;;6241204;23;19953;-86
2023/03/03 07:38:36;;;;;;;;;;;2.60;99.90;;;;;;6214094;23;19899;-90
2023/03/03 07:41:09;;;;;;;;;;;2.60;99.90;;;;;;6242722;23;19904;-88
2023/03/03 07:43:55;;;;;;;;;;;2.60;99.90;;;;;;6215091;23;19908;-85
2023/03/03 07:46:24;;;;;;;;;;;2.70;99.90;;;;;;6213947;23;19953;-87
2023/03/03 07:48:49;;;;;;;;;;;2.70;99.90;;;;;;6241280;23;20029;-87
2023/03/03 07:51:21;;;;;;;;;;;2.70;99.90;;;;;;6241869;23;19900;-85
2023/03/03 07:53:47;;;;;;;;;;;2.70;99.90;;;;;;6214739;23;20240;-85
2023/03/03 07:56:21;;;;;;;;;;;2.60;99.90;;;;;;6242582;23;20328;-86
2023/03/03 07:58:47;;;;;;;;;;;2.80;99.90;;;;;;6241552;23;19982;-86
2023/03/03 08:01:34;;;;;;;;;;;3.10;99.90;;;;;;6243133;23;19927;-85
2023/03/03 08:03:59;;;;;;;;;;;2.80;99.90;;;;;;6241607;23;19939;-87
2023/03/03 08:06:34;;;;;;;;;;;2.80;99.90;;;;;;6241087;23;19910;-86
2023/03/03 08:09:09;;;;;;;;;;;3.00;99.90;;;;;;6213910;23;19983;-85
2023/03/03 08:11:36;;;;;;;;;;;3.10;99.90;;;;;;6241518;23;19899;-88
2023/03/03 08:14:07;;;;;;;;;;;3.10;99.90;;;;;;6241565;23;19972;-85
2023/03/03 08:16:36;;;;;;;;;;;3.20;99.90;;;;;;6241820;23;19954;-85
2023/03/03 08:19:02;;;;;;;;;;;3.50;99.90;;;;;;6241116;23;20085;-85
2023/03/03 08:21:27;;;;;;;;;;;3.50;99.90;;;;;;6214759;23;19899;-85
2023/03/03 08:23:53;;;;;;;;;;;3.60;99.90;;;;;;6240786;23;19989;-86
2023/03/03 08:26:22;;;;;;;;;;;4.80;99.90;;;;;;6242025;23;19899;-86
2023/03/03 08:28:48;;;;;;;;;;;3.70;99.90;;;;;;6241791;23;19954;-85
2023/03/03 08:31:13;;;;;;;;;;;3.80;99.90;;;;;;6242048;23;19927;-85
2023/03/03 08:33:39;;;;;;;;;;;3.80;99.90;;;;;;6241545;23;19906;-85
2023/03/03 08:36:05;;;;;;;;;;;3.80;99.90;;;;;;6241604;23;19900;-85
2023/03/03 08:38:31;;;;;;;;;;;3.90;99.90;;;;;;6241383;23;20252;-86
2023/03/03 08:40:57;;;;;;;;;;;4.00;99.90;;;;;;6241413;23;20386;-87
2023/03/03 08:43:23;;;;;;;;;;;4.00;99.90;;;;;;6241573;23;19914;-86
2023/03/03 08:45:50;;;;;;;;;;;4.10;99.90;;;;;;6214145;23;19899;-87
2023/03/03 08:48:15;;;;;;;;;;;4.20;99.90;;;;;;6242123;23;19900;-87
2023/03/03 08:50:41;;;;;;;;;;;5.30;99.90;;;;;;6241826;23;19907;-86
2023/03/03 08:53:07;;;;;;;;;;;4.20;99.90;;;;;;6241417;23;20476;-85
2023/03/03 08:55:33;;;;;;;;;;;4.30;99.90;;;;;;6241792;23;19903;-85
2023/03/03 08:57:58;;;;;;;;;;;4.50;99.90;;;;;;6241271;23;19900;-86
2023/03/03 09:00:25;;;;;;;;;;;4.50;99.90;;;;;;6241513;23;19907;-85
2023/03/03 09:02:51;;;;;;;;;;;4.90;99.90;;;;;;6213577;23;19922;-85
2023/03/03 09:05:17;;;;;;;;;;;5.20;99.90;;;;;;6215502;23;20236;-85
2023/03/03 09:07:43;;;;;;;;;;;4.70;99.90;;;;;;6240790;23;20328;-86
2023/03/03 09:10:11;;;;;;;;;;;5.60;99.90;;;;;;6213941;23;19911;-85
2023/03/03 09:12:38;;;;;;;;;;;4.90;99.90;;;;;;6214290;23;20241;-84
2023/03/03 09:15:13;;;;;;;;;;;5.00;99.90;;;;;;6240962;23;19900;-85
2023/03/03 09:17:39;;;;;;;;;;;5.00;99.90;;;;;;6240830;23;20397;-85
2023/03/03 09:20:32;;;;;;;;;;;5.00;99.90;;;;;;6240822;23;19907;-84
2023/03/03 09:22:57;;;;;;;;;;;5.10;99.90;;;;;;6234287;23;20303;-85
2023/03/03 09:25:23;;;;;;;;;;;5.10;99.90;;;;;;6241156;23;19927;-85
2023/03/03 09:27:51;;;;;;;;;;;5.70;99.90;;;;;;6241304;23;19900;-85
2023/03/03 09:30:23;;;;;;;;;;;5.10;99.90;;;;;;6241457;23;20316;-88
2023/03/03 09:32:49;;;;;;;;;;;5.30;99.90;;;;;;6240673;23;19900;-85
2023/03/03 09:35:27;;;;;;;;;;;5.30;99.90;;;;;;6241768;23;19953;-84
2023/03/03 09:37:52;;;;;;;;;;;5.50;99.90;;;;;;6240391;23;19910;-85
2023/03/03 09:40:37;;;;;;;;;;;5.70;99.90;;;;;;6241521;23;19929;-85
2023/03/03 09:43:13;;;;;;;;;;;5.50;99.90;;;;;;6213245;23;19918;-85
2023/03/03 09:45:50;;;;;;;;;;;5.60;99.90;;;;;;6240917;23;19911;-85
2023/03/03 09:48:22;;;;;;;;;;;5.70;99.90;;;;;;6214758;23;19906;-85
2023/03/03 09:50:55;;;;;;;;;;;5.80;99.90;;;;;;6214844;23;19916;-85
2023/03/03 09:53:27;;;;;;;;;;;5.90;99.90;;;;;;6241160;23;19899;-85
2023/03/03 09:55:58;;;;;;;;;;;5.90;99.90;;;;;;6240076;23;19939;-85
2023/03/03 09:58:50;;;;;;;;;;;6.00;99.90;;;;;;6241059;23;19899;-85
2023/03/03 10:01:42;;;;;;;;;;;5.90;99.90;;;;;;6158483;23;20313;-85
2023/03/03 10:04:14;;;;;;;;;;;5.90;99.90;;;;;;6206586;23;19907;-85
2023/03/03 10:06:50;;;;;;;;;;;5.80;99.90;;;;;;6213867;23;19904;-84
2023/03/03 10:09:54;;;;;;;;;;;5.80;99.90;;;;;;6214664;23;19900;-85
2023/03/03 10:12:25;;;;;;;;;;;5.90;99.90;;;;;;6089208;23;19901;-85
2023/03/03 10:15:02;;;;;;;;;;;6.10;99.90;;;;;;6088059;23;19905;-85
2023/03/03 10:17:27;;;;;;;;;;;6.30;99.90;;;;;;6149117;23;20227;-84
2023/03/03 10:19:58;;;;;;;;;;;6.50;99.90;;;;;;6240093;23;19914;-85
2023/03/03 10:22:24;;;;;;;;;;;6.50;99.90;;;;;;6240836;23;19970;-85
2023/03/03 10:24:55;;;;;;;;;;;6.40;99.90;;;;;;6240400;23;20343;-84
2023/03/03 10:27:50;;;;;;;;;;;6.30;99.90;;;;;;6240723;23;19900;-86
2023/03/03 10:30:15;;;;;;;;;;;6.40;99.90;;;;;;6107800;23;19908;-86
2023/03/03 10:32:55;;;;;;;;;;;6.50;99.90;;;;;;6240845;23;19931;-84
2023/03/03 10:35:20;;;;;;;;;;;6.50;99.90;;;;;;6240632;23;20247;-84
2023/03/03 10:37:51;;;;;;;;;;;6.60;99.90;;;;;;6214846;23;19938;-84
2023/03/03 10:40:16;;;;;;;;;;;6.60;99.90;;;;;;6241480;23;19906;-85
2023/03/03 10:43:12;;;;;;;;;;;6.70;99.90;;;;;;6240368;23;19939;-84
2023/03/03 10:45:56;;;;;;;;;;;6.90;99.90;;;;;;6209883;23;19899;-84
2023/03/03 10:48:28;;;;;;;;;;;7.00;99.90;;;;;;6241573;23;19954;-85
2023/03/03 10:50:57;;;;;;;;;;;7.10;99.90;;;;;;6242121;23;19911;-84
2023/03/03 10:53:22;;;;;;;;;;;7.30;99.90;;;;;;6241406;23;19907;-84
2023/03/03 10:55:48;;;;;;;;;;;7.40;99.90;;;;;;6214927;23;19907;-83
2023/03/03 10:58:17;;;;;;;;;;;7.60;99.90;;;;;;6241192;23;20221;-84
2023/03/03 11:01:01;;;;;;;;;;;7.60;99.90;;;;;;6239484;23;19904;-84
2023/03/03 11:03:46;;;;;;;;;;;7.70;99.90;;;;;;6239987;23;19962;-84
2023/03/03 11:06:30;;;;;;;;;;;7.80;99.90;;;;;;6240375;23;19904;-85
2023/03/03 11:09:01;;;;;;;;;;;7.80;99.90;;;;;;6243257;23;19907;-83
2023/03/03 11:11:35;;;;;;;;;;;7.80;99.90;;;;;;6243357;23;20001;-84
2023/03/03 11:14:07;;;;;;;;;;;7.60;99.90;;;;;;6243121;23;19899;-84
2023/03/03 11:16:51;;;;;;;;;;;7.50;99.90;;;;;;6244015;23;19903;-82
2023/03/03 11:19:20;;;;;;;;;;;7.60;99.90;;;;;;6244394;23;19978;-84
2023/03/03 11:21:50;;;;;;;;;;;7.60;99.90;;;;;;6243714;23;19903;-84
2023/03/03 11:24:19;;;;;;;;;;;7.50;99.90;;;;;;6244512;23;19990;-85
2023/03/03 11:26:57;;;;;;;;;;;7.50;99.90;;;;;;6244335;23;19904;-84
2023/03/03 11:29:28;;;;;;;;;;;7.60;99.90;;;;;;6243924;23;19978;-84
2023/03/03 11:31:55;;;;;;;;;;;7.60;99.90;;;;;;6243636;23;19948;-84
2023/03/03 11:34:21;;;;;;;;;;;7.70;99.90;;;;;;6216797;23;19950;-84
2023/03/03 11:37:07;;;;;;;;;;;7.70;99.90;;;;;;6244650;23;19899;-84
2023/03/03 11:39:33;;;;;;;;;;;7.80;99.90;;;;;;6243333;23;19908;-84
2023/03/03 11:42:10;;;;;;;;;;;7.80;99.90;;;;;;6216145;23;20289;-85
2023/03/03 11:44:49;;;;;;;;;;;7.80;99.90;;;;;;6216559;23;19915;-93
2023/03/03 11:47:21;;;;;;;;;;;7.90;99.90;;;;;;6217700;23;19929;-84
2023/03/03 11:49:59;;;;;;;;;;;8.00;99.90;;;;;;6244831;23;19907;-84
2023/03/03 11:52:27;;;;;;;;;;;8.20;99.90;;;;;;6243896;23;19982;-85
2023/03/03 11:54:55;;;;;;;;;;;8.10;99.90;;;;;;6242448;23;19903;-86
2023/03/03 11:57:39;;;;;;;;;;;8.10;99.90;;;;;;6243619;23;19900;-85
2023/03/03 12:00:10;;;;;;;;;;;8.20;99.90;;;;;;6243576;23;19900;-84
2023/03/03 12:02:53;;;;;;;;;;;8.40;99.90;;;;;;6243853;23;19907;-86
2023/03/03 12:05:22;;;;;;;;;;;8.40;99.90;;;;;;6243663;23;19911;-85
2023/03/03 12:08:06;;;;;;;;;;;8.40;99.90;;;;;;6217672;23;19900;-84
2023/03/03 12:10:32;;;;;;;;;;;8.40;99.90;;;;;;6216534;23;19900;-86
2023/03/03 12:13:02;;;;;;;;;;;8.30;99.90;;;;;;6243560;23;19899;-85
2023/03/03 12:15:45;;;;;;;;;;;8.20;99.90;;;;;;6243698;23;19978;-85
2023/03/03 12:18:17;;;;;;;;;;;8.30;99.90;;;;;;6242077;23;19903;-85
2023/03/03 12:21:02;;;;;;;;;;;8.30;99.90;;;;;;6241833;23;19904;-85
2023/03/03 12:23:39;;;;;;;;;;;8.20;99.90;;;;;;6241810;23;19933;-85
2023/03/03 12:26:05;;;;;;;;;;;8.40;99.90;;;;;;6241792;23;19914;-84
2023/03/03 12:28:37;;;;;;;;;;;8.40;99.90;;;;;;6241347;23;19899;-84
2023/03/03 12:31:05;;;;;;;;;;;8.40;99.90;;;;;;6241139;23;19930;-84
2023/03/03 12:33:31;;;;;;;;;;;8.40;99.90;;;;;;6242249;23;19906;-84
2023/03/03 12:36:20;;;;;;;;;;;8.40;99.90;;;;;;6241587;23;19974;-86
2023/03/03 12:38:46;;;;;;;;;;;8.50;99.90;;;;;;6242461;23;19907;-84
2023/03/03 12:41:17;;;;;;;;;;;8.50;99.90;;;;;;6241451;23;19903;-84
2023/03/03 12:43:43;;;;;;;;;;;8.40;99.90;;;;;;6241592;23;19911;-85
2023/03/03 12:46:27;;;;;;;;;;;8.60;99.90;;;;;;6240988;23;20153;-85
2023/03/03 12:48:52;;;;;;;;;;;8.70;99.90;;;;;;6241449;23;19918;-85
2023/03/03 12:51:21;;;;;;;;;;;8.60;99.90;;;;;;6242758;23;19900;-85
2023/03/03 12:53:55;;;;;;;;;;;8.80;99.90;;;;;;6242606;23;20332;-85
2023/03/03 12:56:23;;;;;;;;;;;8.80;99.90;;;;;;6241188;23;19900;-85
2023/03/03 12:58:49;;;;;;;;;;;8.70;99.90;;;;;;6241490;23;19945;-85
2023/03/03 13:01:33;;;;;;;;;;;8.70;99.90;;;;;;6242779;23;19900;-85
2023/03/03 13:04:25;;;;;;;;;;;8.80;99.90;;;;;;6241168;23;20295;-84
2023/03/03 13:06:54;;;;;;;;;;;8.90;99.90;;;;;;6214845;23;20254;-85
2023/03/03 13:09:25;;;;;;;;;;;8.90;99.90;;;;;;6241232;23;20297;-88
2023/03/03 13:11:51;;;;;;;;;;;8.90;99.90;;;;;;6240692;23;19900;-86
2023/03/03 13:14:28;;;;;;;;;;;9.00;99.90;;;;;;6242560;23;19910;-89
2023/03/03 13:17:23;;;;;;;;;;;9.00;99.90;;;;;;6214699;23;20308;-85
2023/03/03 13:20:03;;;;;;;;;;;9.00;99.90;;;;;;6108351;23;19984;-86
2023/03/03 13:22:32;;;;;;;;;;;9.10;99.90;;;;;;6241448;23;19922;-85
2023/03/03 13:25:01;;;;;;;;;;;9.10;99.90;;;;;;6214595;23;19907;-84
2023/03/03 13:27:31;;;;;;;;;;;9.10;99.90;;;;;;6241016;23;19900;-84
2023/03/03 13:29:56;;;;;;;;;;;9.20;99.90;;;;;;6240520;23;19899;-84
2023/03/03 13:32:24;;;;;;;;;;;9.30;99.90;;;;;;6240515;23;19931;-83
2023/03/03 13:34:58;;;;;;;;;;;9.30;99.90;;;;;;6240904;23;20390;-84
2023/03/03 13:37:30;;;;;;;;;;;9.30;99.90;;;;;;6241398;23;19900;-83
2023/03/03 13:39:59;;;;;;;;;;;9.40;99.90;;;;;;6241710;23;19899;-84
2023/03/03 13:42:30;;;;;;;;;;;9.50;99.90;;;;;;6242895;23;19900;-84
2023/03/03 13:44:56;;;;;;;;;;;9.50;99.90;;;;;;6240927;23;19914;-86
2023/03/03 13:47:34;;;;;;;;;;;9.50;99.90;;;;;;6240944;23;20320;-85
2023/03/03 13:50:03;;;;;;;;;;;9.60;99.90;;;;;;6240654;23;19907;-84
2023/03/03 13:52:31;;;;;;;;;;;9.70;99.90;;;;;;6213491;23;20241;-85
2023/03/03 13:55:15;;;;;;;;;;;9.80;99.90;;;;;;6240931;23;19979;-84
2023/03/03 13:57:53;;;;;;;;;;;9.70;99.90;;;;;;6240985;23;20321;-84
2023/03/03 14:00:37;;;;;;;;;;;9.70;99.90;;;;;;6213908;23;19998;-85
2023/03/03 14:03:08;;;;;;;;;;;9.70;99.90;;;;;;6240723;23;19992;-85